createdAt,value
2022-09-09T00:01:41.557Z,97987.66
2022-09-09T00:06:46.100Z,97992.88
2022-09-09T00:11:42.454Z,97986.66
2022-09-09T00:16:39.627Z,97997.56
2022-09-09T00:21:39.802Z,97995.38
2022-09-09T00:26:41.670Z,97991.34
2022-09-09T00:31:33.704Z,98006.56
2022-09-09T00:36:29.366Z,97991.63
2022-09-09T00:41:32.239Z,97998.16
2022-09-09T00:46:45.352Z,97998.22
2022-09-09T00:51:55.713Z,98001.22
2022-09-09T00:57:04.846Z,97995.78
2022-09-09T01:01:56.989Z,98004.47
2022-09-09T01:06:54.219Z,98002.81
2022-09-09T01:12:11.407Z,97994.06
2022-09-09T01:17:21.428Z,98005.50
2022-09-09T01:22:27.727Z,98000.03
2022-09-09T01:27:20.878Z,98009.31
2022-09-09T01:32:59.458Z,98011.22
2022-09-09T01:37:51.288Z,98015.31
2022-09-09T01:42:43.139Z,98019.09
2022-09-09T01:47:35.626Z,98020.69
2022-09-09T01:52:27.366Z,98024.78
2022-09-09T01:57:40.561Z,98024.72
2022-09-09T02:02:56.696Z,98026.88
2022-09-09T02:07:50.671Z,98019.53
2022-09-09T02:12:46.833Z,98013.47
2022-09-09T02:17:41.775Z,98008.81
2022-09-09T02:22:36.652Z,98017.78
2022-09-09T02:27:28.948Z,98020.22
2022-09-09T02:32:25.394Z,98015.56
2022-09-09T02:37:21.701Z,98025.91
2022-09-09T02:42:15.949Z,98021.84
2022-09-09T02:47:29.236Z,98033.06
2022-09-09T02:52:46.818Z,98024.34
2022-09-09T02:57:39.150Z,98023.53
2022-09-09T03:02:31.370Z,98027.66
2022-09-09T03:07:23.282Z,98037.75
2022-09-09T03:12:14.867Z,98033.41
2022-09-09T03:17:07.418Z,98034.19
2022-09-09T03:21:59.483Z,98038.63
2022-09-09T03:26:51.571Z,98035.06
2022-09-09T03:31:44.102Z,98034.53
2022-09-09T03:36:35.847Z,98042.44
2022-09-09T03:41:28.234Z,98038.06
2022-09-09T03:46:20.765Z,98046.81
2022-09-09T03:51:12.518Z,98047.91
2022-09-09T03:56:05.237Z,98050.34
2022-09-09T04:00:58.987Z,98053.88
2022-09-09T04:05:50.610Z,98049.53
2022-09-09T04:10:43.291Z,98054.72
2022-09-09T04:15:36.574Z,98060.69
2022-09-09T04:20:28.555Z,98061.22
2022-09-09T04:25:20.173Z,98070.22
2022-09-09T04:30:12.220Z,98061.22
2022-09-09T04:35:04.402Z,98061.22
2022-09-09T04:39:56.202Z,98067.50
2022-09-09T04:44:47.801Z,98067.78
2022-09-09T04:49:39.637Z,98061.22
2022-09-09T04:54:31.375Z,98054.44
2022-09-09T04:59:23.130Z,98064.50
2022-09-09T05:04:16.345Z,98068.06
2022-09-09T05:09:07.912Z,98080.13
2022-09-09T05:13:59.454Z,98080.94
2022-09-09T05:18:52.294Z,98081.75
2022-09-09T05:23:44.154Z,98089.41
2022-09-09T05:28:37.071Z,98089.13
2022-09-09T05:33:29.592Z,98093.22
2022-09-09T05:38:22.977Z,98090.47
2022-09-09T05:43:17.489Z,98098.13
2022-09-09T05:48:09.098Z,98099.75
2022-09-09T05:53:00.634Z,98100.03
2022-09-09T05:57:52.959Z,98106.31
2022-09-09T06:02:44.915Z,98118.88
2022-09-09T06:07:36.769Z,98117.22
2022-09-09T06:12:28.454Z,98117.50
2022-09-09T06:17:20.491Z,98126.19
2022-09-09T06:22:13.557Z,98128.88
2022-09-09T06:27:06.565Z,98125.59
2022-09-09T06:31:59.214Z,98130.47
2022-09-09T06:36:50.910Z,98147.13
2022-09-09T06:41:43.827Z,98155.03
2022-09-09T06:46:36.832Z,98156.91
2022-09-09T06:51:34.519Z,98155.81
2022-09-09T06:56:29.246Z,98164.81
2022-09-09T07:01:24.256Z,98161.72
2022-09-09T07:06:19.286Z,98172.03
2022-09-09T07:11:12.656Z,98172.00
2022-09-09T07:16:10.246Z,98192.66
2022-09-09T07:21:03.193Z,98185.53
2022-09-09T07:25:55.102Z,98182.69
2022-09-09T07:31:06.024Z,98183.97
2022-09-09T07:36:24.354Z,98192.59
2022-09-09T07:41:21.989Z,98194.44
2022-09-09T07:46:16.110Z,98196.41
2022-09-09T07:51:13.142Z,98204.97
2022-09-09T07:56:10.753Z,98214.84
2022-09-09T08:01:08.810Z,98225.66
2022-09-09T08:06:08.948Z,98218.72
2022-09-09T08:11:18.382Z,98228.19
2022-09-09T08:16:29.303Z,98227.31
2022-09-09T08:21:24.387Z,98236.59
2022-09-09T08:26:18.753Z,98235.03
2022-09-09T08:31:19.100Z,98241.53
2022-09-09T08:36:14.304Z,98240.56
2022-09-09T08:41:16.361Z,98235.47
2022-09-09T08:46:16.632Z,98243.31
2022-09-09T08:51:09.822Z,98253.88
2022-09-09T08:56:09.431Z,98249.50
2022-09-09T09:01:10.696Z,98258.66
2022-09-09T09:06:13.544Z,98261.69
2022-09-09T09:11:06.977Z,98270.97
2022-09-09T09:16:37.721Z,98274.22
2022-09-09T09:21:37.492Z,98289.75
2022-09-09T09:26:34.483Z,98303.09
2022-09-09T09:31:27.928Z,98300.03
2022-09-09T09:36:20.799Z,98306.22
2022-09-09T09:41:12.462Z,98315.03
2022-09-09T09:46:21.671Z,98325.94
2022-09-09T09:51:18.029Z,98329.69
2022-09-09T09:56:12.723Z,98341.09
2022-09-09T10:01:05.364Z,98346.00
2022-09-09T10:05:58.062Z,98340.72
2022-09-09T10:11:36.615Z,98345.59
2022-09-09T10:16:50.404Z,98344.09
2022-09-09T10:22:01.607Z,98344.19
2022-09-09T10:27:17.901Z,98358.38
2022-09-09T10:32:28.324Z,98349.78
2022-09-09T10:37:57.063Z,98367.16
2022-09-09T10:42:48.958Z,98371.31
2022-09-09T10:47:59.233Z,98368.75
2022-09-09T10:53:09.805Z,98375.34
2022-09-09T10:58:05.234Z,98365.41
2022-09-09T11:03:03.255Z,98374.22
2022-09-09T11:08:02.249Z,98373.47
2022-09-09T11:13:00.597Z,98369.56
2022-09-09T11:17:57.822Z,98371.28
2022-09-09T11:22:58.124Z,98370.41
2022-09-09T11:27:52.502Z,98383.28
2022-09-09T11:33:03.707Z,98388.97
2022-09-09T11:38:06.211Z,98384.75
2022-09-09T11:43:22.998Z,98382.81
2022-09-09T11:48:46.740Z,98383.31
2022-09-09T11:53:55.145Z,98384.59
2022-09-09T11:59:03.895Z,98383.59
2022-09-09T12:04:21.990Z,98382.47
2022-09-09T12:09:24.411Z,98381.00
2022-09-09T12:14:36.327Z,98379.78
2022-09-09T12:19:27.891Z,98381.97
2022-09-09T12:24:42.841Z,98381.50
2022-09-09T12:30:01.660Z,98390.09
2022-09-09T12:35:03.182Z,98390.59
2022-09-09T12:39:58.039Z,98398.44
2022-09-09T12:45:00.160Z,98394.41
2022-09-09T12:49:52.144Z,98398.84
2022-09-09T12:54:51.666Z,98411.69
2022-09-09T12:59:49.333Z,98399.34
2022-09-09T13:04:40.939Z,98398.16
2022-09-09T13:09:33.180Z,98405.03
2022-09-09T13:14:33.531Z,98412.59
2022-09-09T13:19:29.890Z,98428.94
2022-09-09T13:24:33.751Z,98422.16
2022-09-09T13:29:25.742Z,98422.44
2022-09-09T13:34:32.698Z,98425.53
2022-09-09T13:39:24.470Z,98430.94
2022-09-09T13:44:24.646Z,98443.72
2022-09-09T13:49:16.162Z,98448.13
2022-09-09T13:54:10.974Z,98444.63
2022-09-09T13:59:04.435Z,98450.13
2022-09-09T14:03:56.172Z,98451.34
2022-09-09T14:13:39.528Z,98466.63
2022-09-09T14:18:31.147Z,98469.00
2022-09-09T14:23:23.104Z,98478.34
2022-09-09T14:28:16.128Z,98481.69
2022-09-09T14:33:09.345Z,98496.84
2022-09-09T14:38:02.311Z,98488.91
2022-09-09T14:42:54.982Z,98484.84
2022-09-09T14:47:46.571Z,98495.34
2022-09-09T14:52:38.160Z,98494.75
2022-09-09T14:57:29.803Z,98484.16
2022-09-09T15:02:21.435Z,98486.81
2022-09-09T15:07:13.107Z,98489.56
2022-09-09T15:12:05.716Z,98479.78
2022-09-09T15:16:57.433Z,98489.34
2022-09-09T15:21:49.210Z,98486.69
2022-09-09T15:26:40.800Z,98489.03
2022-09-09T15:31:33.417Z,98495.94
2022-09-09T15:36:27.487Z,98499.00
2022-09-09T15:41:21.117Z,98509.66
2022-09-09T15:46:18.799Z,98497.59
2022-09-09T15:56:22.955Z,98514.31
2022-09-09T16:01:14.755Z,98521.06
2022-09-09T16:06:06.702Z,98519.06
2022-09-09T16:11:15.993Z,98523.56
2022-09-09T16:16:08.440Z,98535.78
2022-09-09T16:21:00.827Z,98545.22
2022-09-09T16:25:56.489Z,98557.41
2022-09-09T16:30:48.167Z,98563.38
2022-09-09T16:35:39.852Z,98558.91
2022-09-09T16:40:31.471Z,98569.47
2022-09-09T16:45:23.154Z,98580.03
2022-09-09T16:50:14.837Z,98583.94
2022-09-09T16:55:06.787Z,98585.84
2022-09-09T17:00:00.547Z,98586.19
2022-09-09T17:04:52.116Z,98592.34
2022-09-09T17:09:43.810Z,98597.25
2022-09-09T17:14:35.419Z,98595.03
2022-09-09T17:19:27.510Z,98602.28
2022-09-09T17:24:19.128Z,98602.06
2022-09-09T17:29:12.318Z,98610.59
2022-09-09T17:34:06.006Z,98597.16
2022-09-09T17:38:58.971Z,98610.59
2022-09-09T17:43:50.857Z,98616.88
2022-09-09T17:48:43.841Z,98613.63
2022-09-09T17:53:40.310Z,98622.16
2022-09-09T17:58:31.922Z,98623.09
2022-09-09T18:03:23.470Z,98622.31
2022-09-09T18:08:15.074Z,98621.34
2022-09-09T18:13:10.205Z,98633.47
2022-09-09T18:18:06.115Z,98639.00
2022-09-09T18:22:57.712Z,98639.09
2022-09-09T18:27:49.302Z,98638.09
2022-09-09T18:32:41.369Z,98632.44
2022-09-09T18:37:34.908Z,98644.56
2022-09-09T18:42:27.411Z,98652.00
2022-09-09T18:47:19.010Z,98666.31
2022-09-09T18:52:12.880Z,98672.09
2022-09-09T18:57:04.723Z,98680.06
2022-09-09T19:01:57.060Z,98687.19
2022-09-09T19:06:49.581Z,98688.59
2022-09-09T19:11:41.683Z,98689.41
2022-09-09T19:16:35.503Z,98697.09
2022-09-09T19:21:29.993Z,98706.41
2022-09-09T19:26:23.181Z,98714.38
2022-09-09T19:31:17.816Z,98722.03
2022-09-09T19:36:11.294Z,98725.09
2022-09-09T19:41:08.695Z,98735.25
2022-09-09T19:46:02.741Z,98746.22
2022-09-09T19:50:54.647Z,98739.38
2022-09-09T19:55:50.861Z,98743.53
2022-09-09T20:00:43.234Z,98741.06
2022-09-09T20:05:34.786Z,98761.06
2022-09-09T20:10:26.376Z,98766.25
2022-09-09T20:15:18.157Z,98763.25
2022-09-09T20:20:09.924Z,98760.78
2022-09-09T20:25:01.544Z,98759.44
2022-09-09T20:29:53.181Z,98778.31
2022-09-09T20:34:48.375Z,98780.22
2022-09-09T20:39:40.174Z,98776.69
2022-09-09T20:44:32.033Z,98781.06
2022-09-09T20:49:24.514Z,98790.34
2022-09-09T20:54:19.841Z,98804.03
2022-09-09T20:59:14.759Z,98812.78
2022-09-09T21:04:08.245Z,98824.28
2022-09-09T21:08:59.930Z,98811.72
2022-09-09T21:13:51.643Z,98822.13
2022-09-09T21:18:44.437Z,98822.94
2022-09-09T21:23:36.117Z,98831.44
2022-09-09T21:28:28.402Z,98838.00
2022-09-09T21:33:20.975Z,98856.09
2022-09-09T21:38:16.243Z,98855.00
2022-09-09T21:43:11.621Z,98865.38
2022-09-09T21:48:05.266Z,98858.56
2022-09-09T21:52:56.908Z,98869.53
2022-09-09T21:57:50.405Z,98865.16
2022-09-09T22:02:42.004Z,98874.13
2022-09-09T22:07:33.689Z,98869.19
2022-09-09T22:12:25.418Z,98875.22
2022-09-09T22:17:17.141Z,98876.31
2022-09-09T22:22:08.790Z,98881.47
2022-09-09T22:27:01.357Z,98883.38
2022-09-09T22:31:56.687Z,98890.19
2022-09-09T22:36:50.179Z,98886.66
2022-09-09T22:41:42.553Z,98897.56
2022-09-09T22:46:34.250Z,98900.28
2022-09-09T22:51:25.911Z,98904.94
2022-09-09T22:56:19.938Z,98901.34
2022-09-09T23:01:17.639Z,98907.34
2022-09-09T23:06:11.900Z,98917.69
2022-09-09T23:11:11.635Z,98920.41
2022-09-09T23:16:11.113Z,98923.94
2022-09-09T23:21:03.415Z,98930.72
2022-09-09T23:25:55.022Z,98929.06
2022-09-09T23:30:47.549Z,98929.59
2022-09-09T23:35:39.116Z,98934.72
2022-09-09T23:40:31.794Z,98926.25
2022-09-09T23:45:24.047Z,98917.78
2022-09-09T23:50:15.648Z,98923.69
2022-09-09T23:55:09.094Z,98937.03
